createdAt,value
2022-12-19T00:01:19.361Z,11.52
2022-12-19T00:03:48.272Z,12.75
2022-12-19T00:06:16.592Z,12.48
2022-12-19T00:08:45.539Z,13.40
2022-12-19T00:11:14.267Z,12.35
2022-12-19T00:13:41.511Z,13.25
2022-12-19T00:16:14.820Z,12.30
2022-12-19T00:18:45.691Z,12.65
2022-12-19T00:21:14.930Z,12.40
2022-12-19T00:23:41.899Z,13.68
2022-12-19T00:26:08.559Z,12.32
2022-12-19T00:28:35.418Z,12.65
2022-12-19T00:31:03.141Z,12.52
2022-12-19T00:33:30.232Z,12.60
2022-12-19T00:36:02.008Z,12.13
2022-12-19T00:38:29.416Z,13.23
2022-12-19T00:40:56.131Z,12.80
2022-12-19T00:43:22.858Z,11.25
2022-12-19T00:45:49.435Z,12.32
2022-12-19T00:48:15.977Z,12.95
2022-12-19T00:50:45.323Z,12.40
2022-12-19T00:53:12.423Z,12.52
2022-12-19T00:55:39.282Z,12.95
2022-12-19T00:58:05.913Z,13.23
2022-12-19T01:00:32.615Z,12.23
2022-12-19T01:02:59.457Z,11.80
2022-12-19T01:05:26.940Z,12.18
2022-12-19T01:07:53.901Z,13.38
2022-12-19T01:10:20.589Z,12.82
2022-12-19T01:12:47.197Z,13.00
2022-12-19T01:15:20.592Z,12.38
2022-12-19T01:17:50.349Z,13.45
2022-12-19T01:20:24.336Z,12.77
2022-12-19T01:22:56.020Z,12.77
2022-12-19T01:25:22.642Z,12.15
2022-12-19T01:27:49.162Z,11.95
2022-12-19T01:30:15.868Z,12.40
2022-12-19T01:32:43.445Z,12.68
2022-12-19T01:35:16.646Z,12.95
2022-12-19T01:37:50.145Z,12.73
2022-12-19T01:40:16.982Z,12.38
2022-12-19T01:42:43.962Z,13.57
2022-12-19T01:45:13.856Z,13.05
2022-12-19T01:47:55.674Z,13.80
2022-12-19T01:50:51.967Z,13.10
2022-12-19T01:53:33.543Z,12.00
2022-12-19T01:56:09.644Z,12.73
2022-12-19T01:58:40.148Z,12.73
2022-12-19T02:01:06.865Z,11.95
2022-12-19T02:03:35.917Z,13.75
2022-12-19T02:06:05.486Z,11.90
2022-12-19T02:08:32.958Z,11.57
2022-12-19T02:11:01.568Z,12.75
2022-12-19T02:13:28.255Z,12.55
2022-12-19T02:16:02.827Z,12.80
2022-12-19T02:18:48.279Z,12.40
2022-12-19T02:21:45.604Z,12.90
2022-12-19T02:24:35.967Z,12.80
2022-12-19T02:27:26.566Z,12.20
2022-12-19T02:29:53.147Z,12.70
2022-12-19T02:32:35.394Z,12.18
2022-12-19T02:35:15.511Z,12.90
2022-12-19T02:37:55.719Z,13.38
2022-12-19T02:40:32.032Z,14.05
2022-12-19T02:43:02.411Z,13.60
2022-12-19T02:45:34.755Z,15.48
2022-12-19T02:48:08.387Z,15.85
2022-12-19T02:50:37.694Z,14.65
2022-12-19T02:53:04.408Z,14.77
2022-12-19T02:55:38.520Z,13.32
2022-12-19T02:58:17.188Z,12.85
2022-12-19T03:01:17.890Z,12.95
2022-12-19T03:04:17.548Z,13.05
2022-12-19T03:07:01.821Z,13.15
2022-12-19T03:09:50.879Z,12.25
2022-12-19T03:12:25.803Z,13.32
2022-12-19T03:14:54.343Z,13.88
2022-12-19T03:17:21.099Z,13.75
2022-12-19T03:19:47.954Z,13.20
2022-12-19T03:22:14.826Z,12.45
2022-12-19T03:24:41.898Z,13.48
2022-12-19T03:27:25.841Z,14.30
2022-12-19T03:30:01.946Z,13.32
2022-12-19T03:32:31.295Z,12.65
2022-12-19T03:35:14.300Z,13.10
2022-12-19T03:37:42.604Z,12.55
2022-12-19T03:40:14.779Z,13.45
2022-12-19T03:43:01.093Z,13.70
2022-12-19T03:45:40.089Z,12.93
2022-12-19T03:48:25.095Z,12.40
2022-12-19T03:50:54.837Z,12.93
2022-12-19T03:53:42.936Z,14.00
2022-12-19T03:56:16.078Z,13.05
2022-12-19T03:58:48.232Z,12.93
2022-12-19T04:01:15.269Z,13.68
2022-12-19T04:03:42.099Z,13.35
2022-12-19T04:06:10.083Z,12.90
2022-12-19T04:08:37.332Z,12.93
2022-12-19T04:11:10.481Z,13.75
2022-12-19T04:13:43.273Z,13.98
2022-12-19T04:16:16.902Z,13.93
2022-12-19T04:18:51.625Z,13.98
2022-12-19T04:21:25.976Z,12.50
2022-12-19T04:23:58.074Z,12.13
2022-12-19T04:26:25.896Z,13.40
2022-12-19T04:29:01.538Z,13.73
2022-12-19T04:31:28.194Z,14.55
2022-12-19T04:33:55.082Z,14.02
2022-12-19T04:36:22.090Z,13.25
2022-12-19T04:38:48.771Z,14.07
2022-12-19T04:41:15.409Z,14.05
2022-12-19T04:43:42.069Z,13.90
2022-12-19T04:46:08.820Z,14.75
2022-12-19T04:48:38.148Z,14.70
2022-12-19T04:51:05.362Z,13.48
2022-12-19T04:53:32.783Z,14.00
2022-12-19T04:56:04.642Z,14.77
2022-12-19T04:58:31.467Z,13.77
2022-12-19T05:01:02.390Z,14.30
2022-12-19T05:03:29.064Z,14.43
2022-12-19T05:06:10.056Z,14.57
2022-12-19T05:08:38.963Z,13.23
2022-12-19T05:11:06.887Z,14.50
2022-12-19T05:13:33.687Z,14.20
2022-12-19T05:16:02.779Z,15.57
2022-12-19T05:18:30.122Z,14.48
2022-12-19T05:20:57.019Z,14.80
2022-12-19T05:23:24.309Z,15.98
2022-12-19T05:25:51.378Z,16.58
2022-12-19T05:28:19.558Z,14.68
2022-12-19T05:30:51.957Z,14.63
2022-12-19T05:33:19.042Z,15.30
2022-12-19T05:35:45.747Z,14.35
2022-12-19T05:38:12.429Z,14.90
2022-12-19T05:40:39.069Z,14.35
2022-12-19T05:43:05.718Z,13.43
2022-12-19T05:45:32.267Z,13.38
2022-12-19T05:48:01.453Z,19.20
2022-12-19T05:50:28.475Z,14.18
2022-12-19T05:52:55.295Z,14.63
2022-12-19T05:55:21.872Z,15.90
2022-12-19T05:57:48.415Z,14.82
2022-12-19T06:00:16.574Z,17.52
2022-12-19T06:02:46.086Z,15.25
2022-12-19T06:05:12.834Z,17.35
2022-12-19T06:07:39.387Z,15.70
2022-12-19T06:10:07.207Z,15.57
2022-12-19T06:12:33.884Z,14.73
2022-12-19T06:15:00.502Z,15.32
2022-12-19T06:17:27.357Z,16.70
2022-12-19T06:19:53.947Z,15.75
2022-12-19T06:22:20.539Z,14.85
2022-12-19T06:24:47.160Z,14.77
2022-12-19T06:27:13.839Z,15.40
2022-12-19T06:29:40.834Z,15.32
2022-12-19T06:32:07.593Z,14.85
2022-12-19T06:37:22.099Z,15.60
2022-12-19T06:39:50.617Z,13.38
2022-12-19T06:42:23.312Z,17.05
2022-12-19T06:44:56.249Z,14.23
2022-12-19T06:47:24.728Z,14.77
2022-12-19T06:49:51.936Z,14.05
2022-12-19T06:52:18.773Z,12.65
2022-12-19T06:54:45.740Z,14.38
2022-12-19T06:57:12.602Z,13.95
2022-12-19T06:59:39.308Z,13.93
2022-12-19T07:02:08.867Z,14.52
2022-12-19T07:04:57.995Z,15.07
2022-12-19T07:07:24.722Z,13.93
2022-12-19T07:09:51.398Z,12.18
2022-12-19T07:12:18.027Z,13.95
2022-12-19T07:14:48.978Z,13.75
2022-12-19T07:17:21.034Z,14.70
2022-12-19T07:19:48.036Z,15.32
2022-12-19T07:22:15.215Z,14.27
2022-12-19T07:24:42.064Z,13.63
2022-12-19T07:27:08.782Z,13.88
2022-12-19T07:29:35.358Z,15.48
2022-12-19T07:32:02.050Z,15.18
2022-12-19T07:34:28.703Z,16.13
2022-12-19T07:36:55.266Z,19.63
2022-12-19T07:39:23.456Z,17.85
2022-12-19T07:41:50.228Z,17.25
2022-12-19T07:44:16.917Z,15.85
2022-12-19T07:46:43.941Z,15.48
2022-12-19T07:49:10.791Z,13.35
2022-12-19T07:51:37.527Z,13.52
2022-12-19T07:54:04.355Z,13.48
2022-12-19T07:56:31.154Z,13.77
2022-12-19T07:58:58.595Z,15.93
2022-12-19T08:01:25.510Z,16.58
2022-12-19T08:03:55.422Z,18.10
2022-12-19T08:06:22.148Z,16.92
2022-12-19T08:08:51.480Z,18.73
2022-12-19T08:11:27.695Z,17.77
2022-12-19T08:13:58.093Z,20.00
2022-12-19T08:16:27.007Z,17.75
2022-12-19T08:18:54.917Z,16.48
2022-12-19T08:21:22.965Z,17.67
2022-12-19T08:23:51.578Z,18.00
2022-12-19T08:26:25.454Z,16.88
2022-12-19T08:28:54.108Z,17.40
2022-12-19T08:31:24.412Z,18.27
2022-12-19T08:33:55.875Z,16.77
2022-12-19T08:36:23.452Z,15.88
2022-12-19T08:38:51.016Z,17.92
2022-12-19T08:41:18.356Z,16.77
2022-12-19T08:43:54.163Z,16.42
2022-12-19T08:46:22.511Z,16.90
2022-12-19T08:48:49.414Z,17.17
2022-12-19T08:51:17.039Z,16.92
2022-12-19T08:53:45.173Z,18.48
2022-12-19T08:56:15.586Z,16.75
2022-12-19T08:58:42.499Z,21.27
2022-12-19T09:01:13.544Z,21.55
2022-12-19T09:04:58.670Z,21.52
2022-12-19T09:06:27.806Z,21.13
2022-12-19T09:08:54.652Z,23.23
2022-12-19T09:11:27.361Z,20.50
2022-12-19T09:13:57.250Z,20.20
2022-12-19T09:16:26.009Z,20.50
2022-12-19T09:18:54.926Z,21.33
2022-12-19T09:21:24.569Z,18.05
2022-12-19T09:23:54.714Z,16.98
2022-12-19T09:26:23.508Z,14.77
2022-12-19T09:28:51.257Z,17.50
2022-12-19T09:31:21.395Z,15.80
2022-12-19T09:33:48.491Z,16.17
2022-12-19T09:36:20.476Z,14.60
2022-12-19T09:38:47.982Z,15.77
2022-12-19T09:41:38.635Z,15.48
2022-12-19T09:44:36.441Z,14.27
2022-12-19T09:47:11.137Z,15.75
2022-12-19T09:49:45.107Z,13.75
2022-12-19T09:52:33.228Z,10.23
2022-12-19T09:55:06.299Z,8.02
2022-12-19T09:57:50.659Z,8.68
2022-12-19T10:00:22.149Z,10.98
2022-12-19T10:03:01.637Z,10.15
2022-12-19T10:06:17.465Z,14.57
2022-12-19T10:08:47.230Z,7.85
2022-12-19T10:12:42.573Z,8.98
2022-12-19T10:15:08.603Z,7.15
2022-12-19T10:17:53.883Z,7.72
2022-12-19T10:20:31.215Z,10.40
2022-12-19T10:23:40.170Z,8.07
2022-12-19T10:26:23.450Z,9.52
2022-12-19T10:29:14.979Z,14.55
2022-12-19T10:31:58.575Z,14.00
2022-12-19T10:34:33.868Z,14.52
2022-12-19T10:37:37.731Z,11.38
2022-12-19T10:40:10.458Z,14.75
2022-12-19T10:43:22.927Z,13.13
2022-12-19T10:46:04.061Z,11.93
2022-12-19T10:48:31.595Z,11.95
2022-12-19T10:51:02.085Z,12.27
2022-12-19T10:53:34.094Z,13.88
2022-12-19T10:56:11.809Z,15.65
2022-12-19T10:58:43.361Z,10.60
2022-12-19T11:01:20.482Z,13.23
2022-12-19T11:03:52.382Z,14.00
2022-12-19T11:06:34.870Z,14.23
2022-12-19T11:09:18.507Z,8.95
2022-12-19T11:17:10.584Z,14.25
2022-12-19T11:19:49.694Z,7.15
2022-12-19T11:26:26.374Z,9.43
2022-12-19T11:29:35.108Z,9.50
2022-12-19T11:30:06.174Z,12.85
2022-12-19T11:30:41.737Z,13.68
2022-12-19T11:30:47.441Z,10.93
2022-12-19T11:34:32.330Z,9.80
2022-12-19T11:37:25.405Z,11.63
2022-12-19T11:40:06.559Z,9.55
2022-12-19T11:42:39.951Z,10.52
2022-12-19T11:45:34.937Z,8.02
2022-12-19T11:48:26.468Z,13.20
2022-12-19T11:51:06.731Z,7.78
2022-12-19T11:53:49.689Z,9.00
2022-12-19T11:56:20.634Z,10.73
2022-12-19T11:58:59.234Z,7.10
2022-12-19T12:01:56.708Z,7.88
2022-12-19T12:04:41.617Z,10.38
2022-12-19T12:07:24.235Z,10.07
2022-12-19T12:14:43.092Z,10.38
2022-12-19T12:19:56.447Z,7.25
2022-12-19T12:29:39.810Z,8.32
2022-12-19T12:31:05.950Z,10.38
2022-12-19T12:31:21.097Z,8.43
2022-12-19T12:31:42.784Z,5.30
2022-12-19T12:32:03.741Z,10.02
2022-12-19T12:36:53.064Z,8.38
2022-12-19T12:38:26.403Z,7.28
2022-12-19T12:41:15.621Z,7.72
2022-12-19T12:43:46.819Z,3.22
2022-12-19T12:46:19.604Z,7.75
2022-12-19T12:48:53.199Z,7.38
2022-12-19T12:51:21.438Z,9.32
2022-12-19T12:53:49.831Z,7.40
2022-12-19T12:56:18.300Z,3.55
2022-12-19T12:59:05.426Z,8.00
2022-12-19T13:01:40.462Z,8.70
2022-12-19T13:04:13.208Z,7.25
2022-12-19T13:06:42.743Z,8.50
2022-12-19T13:09:09.413Z,7.00
2022-12-19T13:11:58.435Z,6.82
2022-12-19T13:14:34.138Z,8.10
2022-12-19T13:17:23.537Z,7.18
2022-12-19T13:19:55.333Z,3.05
2022-12-19T13:22:31.546Z,2.25
2022-12-19T13:25:00.722Z,7.20
2022-12-19T13:27:37.468Z,5.60
2022-12-19T13:30:14.864Z,5.50
2022-12-19T13:32:41.713Z,3.47
2022-12-19T13:36:49.249Z,3.55
2022-12-19T13:39:47.983Z,4.97
2022-12-19T13:40:57.681Z,4.72
2022-12-19T13:43:48.915Z,2.40
2022-12-19T13:46:37.643Z,6.75
2022-12-19T13:49:17.361Z,6.50
2022-12-19T13:51:55.229Z,4.85
2022-12-19T13:54:34.699Z,6.78
2022-12-19T13:57:08.928Z,6.70
2022-12-19T13:59:39.960Z,6.78
2022-12-19T14:02:16.169Z,6.38
2022-12-19T14:04:45.559Z,5.57
2022-12-19T14:07:37.000Z,6.38
2022-12-19T14:11:37.219Z,6.30
2022-12-19T14:13:58.818Z,3.40
2022-12-19T14:16:43.990Z,2.42
2022-12-19T14:19:27.805Z,6.72
2022-12-19T14:22:09.946Z,6.88
2022-12-19T14:24:41.633Z,8.35
2022-12-19T14:28:24.644Z,7.03
2022-12-19T14:30:27.494Z,6.60
2022-12-19T14:33:45.636Z,8.35
2022-12-19T14:36:09.031Z,7.63
2022-12-19T14:39:24.399Z,8.90
2022-12-19T14:41:46.240Z,9.05
2022-12-19T14:52:34.136Z,6.47
2022-12-19T14:54:01.703Z,8.30
2022-12-19T14:54:23.411Z,8.30
2022-12-19T14:54:44.052Z,3.17
2022-12-19T14:56:17.521Z,4.88
2022-12-19T14:58:55.374Z,5.07
2022-12-19T15:01:26.630Z,4.35
2022-12-19T15:04:48.011Z,6.45
2022-12-19T15:07:08.731Z,5.68
2022-12-19T15:11:05.087Z,5.70
2022-12-19T15:14:50.792Z,7.50
2022-12-19T15:16:03.453Z,6.43
2022-12-19T15:18:33.179Z,4.60
2022-12-19T15:21:05.985Z,4.82
2022-12-19T15:23:33.004Z,3.85
2022-12-19T15:26:08.408Z,2.55
2022-12-19T15:28:41.945Z,6.03
2022-12-19T15:31:39.156Z,4.38
2022-12-19T15:34:35.805Z,4.70
2022-12-19T15:37:05.104Z,2.92
2022-12-19T15:39:31.710Z,6.60
2022-12-19T15:42:00.635Z,6.43
2022-12-19T15:44:36.751Z,8.18
2022-12-19T15:47:06.348Z,10.32
2022-12-19T15:49:35.263Z,9.90
2022-12-19T15:52:02.928Z,8.98
2022-12-19T15:57:39.705Z,10.13
2022-12-19T16:00:12.948Z,9.48
2022-12-19T16:05:29.329Z,10.02
2022-12-19T16:07:58.901Z,6.93
2022-12-19T16:10:26.341Z,10.73
2022-12-19T16:12:58.110Z,12.48
2022-12-19T16:15:27.878Z,11.30
2022-12-19T16:17:56.047Z,10.55
2022-12-19T16:20:26.785Z,6.90
2022-12-19T16:22:54.020Z,11.85
2022-12-19T16:25:21.931Z,9.23
2022-12-19T16:27:55.955Z,10.60
2022-12-19T16:30:27.350Z,13.65
2022-12-19T16:32:54.039Z,7.72
2022-12-19T16:35:40.170Z,9.85
2022-12-19T16:38:10.454Z,10.52
2022-12-19T16:40:37.615Z,10.60
2022-12-19T16:43:15.637Z,10.48
2022-12-19T16:45:43.371Z,10.68
2022-12-19T16:48:25.327Z,9.77
2022-12-19T16:50:52.744Z,9.38
2022-12-19T16:53:19.885Z,9.32
2022-12-19T16:55:49.094Z,12.75
2022-12-19T16:58:27.413Z,12.70
2022-12-19T17:00:55.429Z,10.57
2022-12-19T17:03:32.337Z,5.75
2022-12-19T17:05:59.407Z,11.20
2022-12-19T17:08:26.023Z,9.48
2022-12-19T17:10:54.869Z,11.13
2022-12-19T17:13:22.686Z,10.68
2022-12-19T17:15:56.274Z,12.23
2022-12-19T17:18:34.079Z,11.90
2022-12-19T17:21:00.949Z,11.50
2022-12-19T17:23:30.157Z,9.98
2022-12-19T17:25:58.200Z,12.95
2022-12-19T17:28:25.135Z,11.10
2022-12-19T17:30:55.389Z,10.38
2022-12-19T17:33:33.350Z,10.80
2022-12-19T17:36:02.015Z,10.48
2022-12-19T17:38:28.643Z,11.48
2022-12-19T17:40:55.399Z,11.23
2022-12-19T17:43:22.319Z,12.40
2022-12-19T17:45:50.704Z,10.80
2022-12-19T17:48:28.486Z,7.97
2022-12-19T17:50:56.178Z,8.05
2022-12-19T17:53:23.422Z,6.07
2022-12-19T17:55:50.791Z,11.68
2022-12-19T17:58:17.398Z,11.02
2022-12-19T18:00:47.165Z,10.80
2022-12-19T18:03:21.721Z,11.70
2022-12-19T18:05:50.495Z,10.82
2022-12-19T18:08:35.158Z,12.60
2022-12-19T18:11:04.369Z,11.65
2022-12-19T18:13:32.349Z,12.27
2022-12-19T18:16:03.399Z,11.13
2022-12-19T18:18:33.703Z,11.20
2022-12-19T18:21:02.086Z,9.65
2022-12-19T18:23:30.543Z,8.15
2022-12-19T18:26:01.852Z,7.32
2022-12-19T18:28:29.577Z,7.68
2022-12-19T18:31:06.178Z,8.38
2022-12-19T18:33:39.010Z,6.65
2022-12-19T18:36:07.026Z,6.43
2022-12-19T18:38:33.906Z,5.85
2022-12-19T18:41:00.761Z,4.47
2022-12-19T18:43:27.411Z,4.47
2022-12-19T18:45:54.017Z,1.17
2022-12-19T18:48:25.677Z,2.90
2022-12-19T18:50:56.655Z,4.32
2022-12-19T18:53:27.452Z,3.60
2022-12-19T18:55:58.680Z,3.90
2022-12-19T18:58:25.354Z,3.00
2022-12-19T19:00:59.005Z,1.63
2022-12-19T19:03:38.709Z,3.25
2022-12-19T19:06:14.096Z,3.63
2022-12-19T19:08:40.821Z,3.22
2022-12-19T19:11:07.599Z,3.42
2022-12-19T19:13:34.408Z,3.22
2022-12-19T19:16:05.461Z,3.08
2022-12-19T19:18:37.602Z,3.97
2022-12-19T19:21:05.995Z,2.45
2022-12-19T19:23:37.513Z,4.20
2022-12-19T19:26:05.821Z,4.40
2022-12-19T19:28:32.483Z,4.75
2022-12-19T19:31:01.312Z,2.42
2022-12-19T19:33:34.660Z,4.63
2022-12-19T19:36:11.625Z,3.75
2022-12-19T19:38:41.388Z,3.88
2022-12-19T19:41:08.244Z,4.60
2022-12-19T19:43:35.619Z,4.10
2022-12-19T19:46:02.843Z,3.00
2022-12-19T19:48:30.227Z,3.78
2022-12-19T19:50:57.268Z,3.03
2022-12-19T19:53:24.025Z,2.28
2022-12-19T19:56:01.430Z,2.10
2022-12-19T19:58:29.255Z,3.78
2022-12-19T20:00:56.784Z,4.00
2022-12-19T20:03:24.599Z,2.22
2022-12-19T20:05:59.127Z,2.75
2022-12-19T20:08:26.276Z,2.80
2022-12-19T20:10:57.322Z,1.48
2022-12-19T20:13:24.596Z,2.17
2022-12-19T20:15:52.049Z,1.08
2022-12-19T20:18:18.976Z,0.95
2022-12-19T20:20:48.747Z,2.53
2022-12-19T20:23:15.714Z,2.50
2022-12-19T20:25:43.239Z,0.80
2022-12-19T20:28:10.048Z,1.08
2022-12-19T20:30:37.812Z,2.83
2022-12-19T20:33:04.449Z,1.65
2022-12-19T20:35:31.517Z,2.80
2022-12-19T20:37:58.122Z,1.90
2022-12-19T20:40:24.640Z,2.30
2022-12-19T20:42:51.300Z,2.10
2022-12-19T20:45:17.957Z,2.42
2022-12-19T20:47:44.547Z,2.20
2022-12-19T20:50:13.053Z,1.88
2022-12-19T20:52:40.337Z,1.50
2022-12-19T20:55:07.644Z,2.08
2022-12-19T20:57:34.266Z,1.60
2022-12-19T21:00:01.113Z,1.70
2022-12-19T21:02:27.847Z,1.13
2022-12-19T21:04:54.608Z,1.58
2022-12-19T21:07:21.411Z,2.88
2022-12-19T21:09:50.238Z,1.02
2022-12-19T21:12:17.057Z,1.95
2022-12-19T21:14:43.638Z,1.45
2022-12-19T21:17:10.255Z,1.92
2022-12-19T21:19:37.005Z,2.28
2022-12-19T21:22:03.826Z,2.50
2022-12-19T21:24:30.463Z,2.03
2022-12-19T21:26:58.316Z,2.67
2022-12-19T21:29:25.743Z,2.45
2022-12-19T21:31:52.532Z,3.03
2022-12-19T21:34:19.157Z,2.65
2022-12-19T21:36:45.732Z,2.90
2022-12-19T21:39:13.184Z,3.63
2022-12-19T21:41:40.095Z,3.60
2022-12-19T21:44:06.778Z,3.15
2022-12-19T21:46:33.925Z,4.00
2022-12-19T21:49:02.724Z,1.95
2022-12-19T21:51:31.398Z,4.05
2022-12-19T21:54:00.853Z,3.15
2022-12-19T21:56:32.237Z,2.72
2022-12-19T21:59:02.033Z,4.25
2022-12-19T22:01:30.330Z,3.47
2022-12-19T22:04:01.667Z,4.05
2022-12-19T22:06:31.946Z,3.90
2022-12-19T22:09:00.283Z,4.43
2022-12-19T22:11:28.503Z,3.20
2022-12-19T22:13:55.643Z,2.95
2022-12-19T22:16:22.352Z,5.05
2022-12-19T22:18:51.375Z,4.50
2022-12-19T22:21:18.209Z,4.55
2022-12-19T22:23:45.851Z,5.82
2022-12-19T22:26:15.378Z,4.60
2022-12-19T22:28:44.801Z,4.35
2022-12-19T22:31:22.421Z,5.05
2022-12-19T22:33:51.241Z,3.85
2022-12-19T22:36:25.811Z,5.63
2022-12-19T22:38:54.738Z,4.35
2022-12-19T22:41:21.515Z,6.15
2022-12-19T22:43:48.216Z,4.45
2022-12-19T22:46:16.492Z,5.28
2022-12-19T22:48:43.988Z,5.95
2022-12-19T22:51:29.600Z,5.18
2022-12-19T22:53:57.037Z,5.10
2022-12-19T22:56:26.423Z,5.68
2022-12-19T22:58:55.906Z,4.50
2022-12-19T23:01:28.461Z,5.25
2022-12-19T23:03:57.439Z,6.93
2022-12-19T23:06:26.563Z,6.45
2022-12-19T23:08:53.653Z,4.30
2022-12-19T23:11:23.505Z,5.43
2022-12-19T23:13:51.507Z,4.60
2022-12-19T23:16:18.733Z,6.65
2022-12-19T23:18:45.690Z,6.53
2022-12-19T23:21:19.339Z,5.70
2022-12-19T23:23:47.994Z,6.53
2022-12-19T23:26:18.086Z,5.78
2022-12-19T23:28:51.621Z,7.45
2022-12-19T23:31:18.482Z,5.07
2022-12-19T23:33:45.489Z,6.38
2022-12-19T23:36:12.165Z,6.47
2022-12-19T23:38:38.874Z,3.30
2022-12-19T23:41:08.575Z,4.80
2022-12-19T23:43:36.262Z,5.38
2022-12-19T23:46:14.016Z,6.60
2022-12-19T23:48:41.518Z,6.80
2022-12-19T23:51:11.973Z,6.38
2022-12-19T23:53:38.628Z,6.22
2022-12-19T23:56:11.018Z,6.22
2022-12-19T23:58:37.682Z,5.28
